Airfield :
LOGIN :

Register | Disclaimer

   EN    FR    IT 

 










Legend :    VFR   Marginal VFR   IFR   Intensive IFR   Very Intensive IFR
Visi :
Ceiling :
>= 8 km
>= 3000ft
5 to 8 km
1000 to 3000 ft
1500m to 5 km
500 to 1000 ft
800 to 1500m
200 to 500 ft
< 800m
< 200 ft
Symbols :   Thunderstorms  Fog  Heavy snow  Heavy precipitations  Wind > 20 kt
SIGMETs :     Misc.  Thunderstorms  Icing  Turbulence  Mountain Waves  Volcanic Ashes






- Airport Elevation : 295 ft
- IATA code : BWE


EDVE - Braunschweig

CURRENT METAR :
  • 162220Z AUTO 20005KT 9999 FEW072/// BKN170/// 17/09 Q1009

EXPIRED METARs :
  • 162150Z AUTO 20004KT 170V310 9999 FEW071/// BKN080/// 18/09 Q1009
  • 162120Z AUTO 19004KT 160V220 9999 OVC082/// 18/10 Q1009
  • 162050Z AUTO 16004KT 9999 BKN082/// 18/10 Q1009
  • 162020Z AUTO 13003KT 9999 BKN077/// 16/11 Q1009
  • 161950Z AUTO 11003KT 9999 FEW064/// BKN072/// OVC082/// 17/11 Q1009
  • 161920Z AUTO VRB02KT 9999 BKN064/// OVC075/// 17/11 Q1009
  • 161850Z AUTO 28004KT 9999 OVC067/// 18/11 Q1008
  • 161820Z 27005KT CAVOK 18/10 Q1008
  • 161750Z 26008KT 220V290 CAVOK 19/10 Q1008

Expired Forecast.



MET'MAP, your aeronautical weather chart ! - Copyright ORBIFLY December 2007 - Disclaimer

ORBIFLY MET'MAP TEAM :

Programming & Development : Alexandra Zaïnal
Original concept : Baudouin d'Aumeries
Technical & hardware support : Manuel Goepfert
Assistance : Marc-Olivier Méhu




SOURCES & CREDITS :

   NOAA